createdAt,value
2019-04-05T00:01:24.398Z,8.53
2019-04-05T00:03:52.923Z,9.30
2019-04-05T00:06:21.359Z,9.83
2019-04-05T00:08:49.807Z,10.00
2019-04-05T00:11:18.678Z,11.13
2019-04-05T00:13:47.189Z,10.60
2019-04-05T00:16:15.660Z,11.43
2019-04-05T00:18:44.124Z,10.60
2019-04-05T00:21:12.561Z,10.40
2019-04-05T00:23:41.014Z,10.10
2019-04-05T00:26:09.843Z,9.60
2019-04-05T00:28:38.313Z,9.43
2019-04-05T00:31:06.751Z,9.77
2019-04-05T00:33:35.200Z,9.90
2019-04-05T00:36:03.958Z,9.27
2019-04-05T00:38:32.504Z,10.17
2019-04-05T00:41:01.019Z,9.53
2019-04-05T00:43:29.492Z,9.20
2019-04-05T00:45:57.914Z,8.87
2019-04-05T00:48:26.374Z,9.60
2019-04-05T00:50:54.814Z,9.10
2019-04-05T00:53:23.253Z,8.50
2019-04-05T00:55:51.754Z,8.10
2019-04-05T00:58:20.214Z,8.83
2019-04-05T01:00:48.689Z,8.73
2019-04-05T01:03:17.138Z,8.63
2019-04-05T01:05:45.568Z,8.17
2019-04-05T01:08:14.010Z,8.23
2019-04-05T01:10:42.464Z,8.57
2019-04-05T01:13:10.902Z,9.20
2019-04-05T01:15:40.996Z,8.93
2019-04-05T01:18:10.156Z,9.57
2019-04-05T01:20:42.011Z,8.87
2019-04-05T01:23:11.610Z,9.07
2019-04-05T01:25:41.197Z,9.13
2019-04-05T01:28:10.783Z,8.73
2019-04-05T01:30:39.246Z,8.70
2019-04-05T01:33:07.760Z,8.47
2019-04-05T01:35:36.192Z,8.87
2019-04-05T01:38:05.086Z,8.90
2019-04-05T01:40:36.355Z,10.13
2019-04-05T01:43:05.351Z,9.07
2019-04-05T01:45:34.102Z,9.57
2019-04-05T01:48:02.605Z,9.67
2019-04-05T01:50:31.452Z,10.87
2019-04-05T01:53:00.116Z,10.00
2019-04-05T01:55:29.246Z,10.90
2019-04-05T01:57:58.163Z,11.77
2019-04-05T02:00:26.622Z,11.90
2019-04-05T02:02:55.144Z,12.10
2019-04-05T02:05:23.895Z,12.60
2019-04-05T02:07:52.411Z,13.10
2019-04-05T02:10:21.319Z,12.17
2019-04-05T02:12:49.760Z,12.10
2019-04-05T02:15:24.021Z,12.07
2019-04-05T02:17:52.540Z,11.30
2019-04-05T02:20:21.553Z,10.93
2019-04-05T02:22:50.155Z,16.50
2019-04-05T02:25:19.144Z,9.80
2019-04-05T02:27:47.864Z,8.40
2019-04-05T02:30:16.900Z,8.37
2019-04-05T02:32:45.732Z,7.67
2019-04-05T02:35:14.850Z,7.37
2019-04-05T02:37:43.462Z,7.27
2019-04-05T02:40:14.759Z,7.10
2019-04-05T02:42:46.319Z,7.17
2019-04-05T02:45:16.996Z,5.60
2019-04-05T02:47:57.422Z,5.87
2019-04-05T02:50:29.154Z,5.90
2019-04-05T02:53:00.739Z,7.60
2019-04-05T02:55:30.570Z,7.47
2019-04-05T02:58:01.632Z,7.20
2019-04-05T03:00:32.035Z,8.00
2019-04-05T03:03:01.606Z,7.90
2019-04-05T03:05:30.199Z,7.00
2019-04-05T03:07:58.718Z,6.77
2019-04-05T03:10:50.863Z,6.17
2019-04-05T03:13:19.780Z,4.83
2019-04-05T03:15:48.323Z,7.33
2019-04-05T03:18:17.385Z,9.93
2019-04-05T03:20:46.115Z,8.73
2019-04-05T03:23:15.410Z,10.03
2019-04-05T03:25:48.055Z,8.90
2019-04-05T03:28:15.200Z,10.50
2019-04-05T03:30:44.093Z,9.37
2019-04-05T03:33:12.697Z,8.53
2019-04-05T03:35:42.057Z,8.23
2019-04-05T03:38:10.567Z,9.43
2019-04-05T03:40:39.985Z,9.30
2019-04-05T03:43:08.794Z,9.90
2019-04-05T03:45:37.722Z,9.40
2019-04-05T03:48:06.145Z,9.07
2019-04-05T03:50:34.960Z,9.10
2019-04-05T03:53:04.172Z,8.23
2019-04-05T03:55:32.910Z,8.70
2019-04-05T03:58:01.719Z,8.77
2019-04-05T04:00:30.483Z,8.37
2019-04-05T04:02:59.447Z,7.37
2019-04-05T04:05:28.395Z,7.77
2019-04-05T04:07:57.356Z,7.97
2019-04-05T04:10:28.037Z,7.10
2019-04-05T04:12:56.967Z,7.90
2019-04-05T04:15:26.150Z,7.70
2019-04-05T04:17:55.462Z,6.37
2019-04-05T04:20:46.632Z,6.70
2019-04-05T04:23:15.662Z,6.90
2019-04-05T04:25:44.594Z,7.03
2019-04-05T04:28:13.941Z,6.73
2019-04-05T04:30:43.010Z,6.90
2019-04-05T04:33:12.526Z,7.00
2019-04-05T04:35:41.718Z,8.80
2019-04-05T04:38:10.310Z,7.80
2019-04-05T04:40:38.892Z,7.17
2019-04-05T04:43:07.894Z,6.30
2019-04-05T04:45:36.419Z,7.10
2019-04-05T04:48:05.028Z,6.10
2019-04-05T04:50:34.474Z,6.87
2019-04-05T04:53:03.333Z,7.20
2019-04-05T04:55:31.846Z,6.67
2019-04-05T04:58:00.571Z,6.27
2019-04-05T05:00:29.087Z,6.43
2019-04-05T05:02:57.847Z,6.17
2019-04-05T05:05:27.239Z,6.33
2019-04-05T05:07:56.223Z,6.03
2019-04-05T05:10:24.809Z,6.00
2019-04-05T05:12:53.925Z,6.60
2019-04-05T05:15:22.359Z,6.07
2019-04-05T05:17:58.513Z,6.23
2019-04-05T05:20:21.259Z,5.63
2019-04-05T05:22:49.783Z,5.20
2019-04-05T05:25:18.366Z,4.93
2019-04-05T05:27:46.990Z,5.30
2019-04-05T05:30:15.676Z,6.07
2019-04-05T05:32:44.312Z,5.63
2019-04-05T05:35:12.861Z,5.63
2019-04-05T05:37:41.885Z,5.40
2019-04-05T05:40:11.377Z,5.23
2019-04-05T05:42:40.167Z,5.27
2019-04-05T05:45:09.676Z,6.27
2019-04-05T05:47:50.742Z,6.17
2019-04-05T05:50:08.875Z,6.53
2019-04-05T05:52:37.312Z,6.93
2019-04-05T05:55:06.678Z,6.60
2019-04-05T05:57:35.119Z,7.40
2019-04-05T06:00:05.763Z,6.27
2019-04-05T06:02:34.248Z,6.87
2019-04-05T06:05:02.765Z,6.80
2019-04-05T06:07:31.237Z,6.90
2019-04-05T06:09:59.722Z,6.03
2019-04-05T06:12:28.192Z,7.40
2019-04-05T06:14:56.637Z,7.27
2019-04-05T06:17:25.075Z,6.50
2019-04-05T06:19:53.527Z,6.90
2019-04-05T06:22:21.993Z,6.80
2019-04-05T06:24:50.434Z,6.93
2019-04-05T06:27:18.957Z,7.57
2019-04-05T06:29:47.442Z,6.60
2019-04-05T06:32:15.898Z,6.93
2019-04-05T06:34:44.693Z,7.73
2019-04-05T06:37:13.119Z,9.00
2019-04-05T06:39:41.590Z,6.30
2019-04-05T06:42:10.041Z,7.33
2019-04-05T06:44:38.818Z,7.30
2019-04-05T06:47:07.263Z,7.63
2019-04-05T06:49:35.720Z,7.37
2019-04-05T06:52:04.241Z,7.03
2019-04-05T06:54:32.759Z,6.53
2019-04-05T06:57:01.235Z,6.23
2019-04-05T06:59:29.684Z,6.27
2019-04-05T07:01:58.112Z,6.03
2019-04-05T07:04:26.962Z,5.73
2019-04-05T07:06:55.759Z,6.73
2019-04-05T07:09:24.211Z,5.90
2019-04-05T07:11:52.652Z,5.17
2019-04-05T07:14:21.420Z,5.53
2019-04-05T07:16:50.179Z,5.07
2019-04-05T07:19:18.961Z,5.63
2019-04-05T07:21:47.418Z,5.20
2019-04-05T07:24:15.950Z,5.47
2019-04-05T07:26:44.410Z,4.67
2019-04-05T07:29:17.115Z,4.83
2019-04-05T07:31:45.577Z,4.90
2019-04-05T07:34:14.029Z,4.93
2019-04-05T07:36:42.470Z,4.87
2019-04-05T07:39:10.917Z,5.00
2019-04-05T07:41:39.373Z,5.43
2019-04-05T07:44:07.841Z,4.47
2019-04-05T07:46:36.274Z,5.40
2019-04-05T07:49:04.731Z,5.90
2019-04-05T07:51:33.206Z,5.50
2019-04-05T07:54:01.988Z,5.17
2019-04-05T07:56:30.452Z,5.47
2019-04-05T07:58:58.934Z,5.53
2019-04-05T08:01:27.741Z,4.70
2019-04-05T08:03:58.106Z,4.57
2019-04-05T08:06:28.172Z,4.93
2019-04-05T08:09:02.179Z,4.90
2019-04-05T08:11:30.729Z,5.00
2019-04-05T08:14:01.322Z,5.07
2019-04-05T08:16:30.406Z,6.47
2019-04-05T08:18:58.964Z,5.93
2019-04-05T08:21:27.959Z,5.20
2019-04-05T08:23:56.576Z,5.47
2019-04-05T08:26:25.115Z,4.63
2019-04-05T08:28:53.940Z,5.33
2019-04-05T08:31:22.735Z,6.10
2019-04-05T08:33:51.731Z,5.67
2019-04-05T08:36:20.300Z,6.07
2019-04-05T08:38:48.745Z,5.90
2019-04-05T08:41:17.665Z,6.73
2019-04-05T08:43:47.376Z,5.37
2019-04-05T08:46:16.109Z,6.43
2019-04-05T08:48:44.760Z,6.87
2019-04-05T08:51:13.277Z,6.20
2019-04-05T08:53:42.134Z,6.60
2019-04-05T08:56:10.727Z,7.83
2019-04-05T08:58:39.204Z,9.03
2019-04-05T09:01:07.984Z,6.13
2019-04-05T09:03:36.841Z,7.10
2019-04-05T09:06:05.378Z,6.87
2019-04-05T09:08:33.907Z,7.57
2019-04-05T09:11:02.470Z,7.77
2019-04-05T09:13:30.898Z,6.17
2019-04-05T09:15:59.338Z,7.40
2019-04-05T09:18:27.835Z,9.37
2019-04-05T09:20:59.199Z,9.30
2019-04-05T09:23:27.655Z,10.87
2019-04-05T09:25:56.433Z,10.57
2019-04-05T09:28:24.883Z,10.70
2019-04-05T09:30:53.323Z,10.10
2019-04-05T09:33:21.813Z,9.67
2019-04-05T09:35:50.575Z,10.23
2019-04-05T09:38:19.037Z,9.90
2019-04-05T09:40:47.517Z,10.37
2019-04-05T09:43:15.956Z,10.10
2019-04-05T09:45:44.430Z,10.60
2019-04-05T09:48:12.944Z,9.43
2019-04-05T09:50:41.411Z,10.73
2019-04-05T09:53:09.861Z,10.03
2019-04-05T09:55:38.367Z,9.00
2019-04-05T09:58:09.814Z,8.87
2019-04-05T10:00:37.011Z,8.00
2019-04-05T10:03:05.457Z,9.30
2019-04-05T10:05:33.907Z,8.50
2019-04-05T10:08:02.342Z,8.47
2019-04-05T10:10:30.835Z,9.20
2019-04-05T10:12:59.271Z,8.53
2019-04-05T10:15:27.776Z,9.20
2019-04-05T10:17:56.242Z,8.60
2019-04-05T10:20:24.688Z,7.80
2019-04-05T10:22:53.139Z,7.10
2019-04-05T10:25:21.608Z,6.53
2019-04-05T10:27:50.058Z,7.30
2019-04-05T10:30:20.324Z,6.50
2019-04-05T10:32:48.794Z,6.57
2019-04-05T10:35:17.235Z,6.57
2019-04-05T10:37:45.712Z,6.40
2019-04-05T10:40:14.723Z,6.40
2019-04-05T10:42:43.191Z,6.47
2019-04-05T10:45:13.566Z,6.40
2019-04-05T10:47:42.399Z,6.50
2019-04-05T10:50:13.799Z,6.47
2019-04-05T10:52:43.199Z,6.73
2019-04-05T10:55:12.496Z,6.70
2019-04-05T10:57:40.967Z,6.73
2019-04-05T11:00:15.608Z,6.33
2019-04-05T11:02:44.332Z,6.93
2019-04-05T11:05:13.411Z,7.20
2019-04-05T11:07:41.856Z,7.30
2019-04-05T11:10:10.844Z,7.10
2019-04-05T11:12:39.431Z,6.93
2019-04-05T11:15:09.622Z,8.20
2019-04-05T11:17:38.087Z,7.97
2019-04-05T11:20:20.811Z,8.80
2019-04-05T11:22:39.806Z,8.13
2019-04-05T11:25:09.098Z,8.00
2019-04-05T11:27:37.821Z,7.93
2019-04-05T11:30:08.623Z,8.97
2019-04-05T11:32:38.529Z,8.90
2019-04-05T11:35:08.086Z,8.70
2019-04-05T11:37:39.485Z,8.90
2019-04-05T11:40:09.832Z,8.97
2019-04-05T11:42:38.363Z,8.70
2019-04-05T11:45:10.012Z,9.27
2019-04-05T11:47:41.219Z,8.87
2019-04-05T11:50:11.662Z,9.57
2019-04-05T11:52:40.114Z,10.17
2019-04-05T11:55:09.033Z,10.23
2019-04-05T11:57:40.943Z,9.80
2019-04-05T12:00:13.847Z,9.50
2019-04-05T12:02:49.794Z,10.63
2019-04-05T12:05:20.381Z,11.17
2019-04-05T12:07:49.499Z,10.63
2019-04-05T12:10:19.438Z,11.53
2019-04-05T12:12:48.196Z,11.00
2019-04-05T12:15:16.773Z,10.03
2019-04-05T12:17:45.236Z,10.70
2019-04-05T12:20:14.642Z,10.20
2019-04-05T12:22:43.115Z,10.97
2019-04-05T12:25:13.251Z,10.83
2019-04-05T12:27:41.703Z,10.53
2019-04-05T12:30:13.032Z,10.87
2019-04-05T12:32:41.811Z,10.10
2019-04-05T12:35:10.776Z,11.33
2019-04-05T12:37:49.402Z,11.20
2019-04-05T12:40:11.149Z,11.63
2019-04-05T12:42:42.655Z,13.33
2019-04-05T12:45:14.711Z,12.53
2019-04-05T12:47:41.345Z,14.50
2019-04-05T12:50:10.140Z,11.50
2019-04-05T12:52:38.617Z,12.40
2019-04-05T12:55:08.403Z,12.57
2019-04-05T12:57:36.883Z,12.67
2019-04-05T13:00:13.181Z,12.53
2019-04-05T13:02:41.202Z,12.70
2019-04-05T13:05:10.103Z,12.33
2019-04-05T13:07:38.572Z,12.10
2019-04-05T13:10:07.587Z,15.10
2019-04-05T13:12:36.087Z,13.27
2019-04-05T13:15:12.896Z,13.57
2019-04-05T13:17:36.342Z,13.80
2019-04-05T13:20:07.551Z,13.67
2019-04-05T13:22:36.014Z,14.23
2019-04-05T13:25:10.727Z,14.93
2019-04-05T13:27:36.879Z,13.13
2019-04-05T13:30:08.253Z,14.40
2019-04-05T13:32:36.715Z,13.10
2019-04-05T13:35:06.619Z,13.67
2019-04-05T13:37:35.092Z,13.30
2019-04-05T13:40:06.354Z,14.13
2019-04-05T13:42:35.463Z,12.53
2019-04-05T13:45:07.782Z,13.27
2019-04-05T13:47:38.895Z,14.70
2019-04-05T13:50:11.016Z,13.20
2019-04-05T13:52:41.442Z,14.20
2019-04-05T13:55:11.337Z,14.73
2019-04-05T13:57:40.982Z,13.37
2019-04-05T14:00:12.192Z,13.30
2019-04-05T14:02:40.667Z,13.47
2019-04-05T14:05:09.600Z,15.50
2019-04-05T14:07:38.085Z,17.23
2019-04-05T14:10:10.632Z,15.20
2019-04-05T14:12:40.295Z,14.67
2019-04-05T14:15:11.374Z,13.27
2019-04-05T14:17:44.046Z,16.30
2019-04-05T14:20:11.244Z,15.60
2019-04-05T14:22:39.759Z,14.30
2019-04-05T14:25:09.614Z,15.57
2019-04-05T14:27:38.166Z,16.10
2019-04-05T14:30:07.905Z,14.67
2019-04-05T14:32:36.445Z,13.27
2019-04-05T14:35:08.143Z,15.77
2019-04-05T14:37:39.162Z,13.37
2019-04-05T14:40:08.326Z,16.67
2019-04-05T14:42:37.402Z,17.27
2019-04-05T14:45:07.809Z,16.43
2019-04-05T14:47:36.524Z,17.67
2019-04-05T14:50:08.944Z,16.67
2019-04-05T14:52:37.791Z,17.27
2019-04-05T14:55:06.969Z,15.27
2019-04-05T14:57:36.538Z,15.53
2019-04-05T15:00:07.451Z,16.40
2019-04-05T15:02:35.907Z,17.07
2019-04-05T15:05:07.002Z,18.00
2019-04-05T15:07:37.590Z,15.87
2019-04-05T15:10:06.585Z,18.20
2019-04-05T15:12:35.032Z,17.37
2019-04-05T15:15:04.877Z,15.67
2019-04-05T15:17:33.344Z,15.23
2019-04-05T15:20:04.763Z,16.63
2019-04-05T15:22:31.976Z,19.17
2019-04-05T15:25:01.086Z,19.03
2019-04-05T15:27:29.805Z,17.93
2019-04-05T15:29:58.243Z,16.93
2019-04-05T15:32:27.438Z,17.23
2019-04-05T15:34:56.534Z,17.00
2019-04-05T15:37:26.188Z,16.67
2019-04-05T15:39:54.659Z,18.83
2019-04-05T15:42:23.196Z,15.30
2019-04-05T15:44:51.715Z,16.23
2019-04-05T15:47:23.158Z,16.63
2019-04-05T15:49:52.033Z,18.33
2019-04-05T15:52:20.536Z,15.03
2019-04-05T15:54:48.963Z,18.50
2019-04-05T15:57:17.447Z,17.10
2019-04-05T15:59:45.891Z,17.40
2019-04-05T16:02:14.351Z,19.40
2019-04-05T16:04:43.256Z,19.83
2019-04-05T16:07:11.700Z,18.13
2019-04-05T16:09:40.146Z,16.23
2019-04-05T16:12:08.677Z,17.87
2019-04-05T16:14:37.124Z,17.93
2019-04-05T16:17:06.808Z,19.03
2019-04-05T16:19:35.258Z,17.53
2019-04-05T16:22:04.058Z,17.97
2019-04-05T16:24:32.518Z,19.20
2019-04-05T16:27:00.967Z,19.00
2019-04-05T16:29:29.495Z,17.50
2019-04-05T16:31:57.947Z,18.47
2019-04-05T16:34:26.403Z,17.87
2019-04-05T16:36:54.856Z,18.97
2019-04-05T16:39:23.311Z,17.23
2019-04-05T16:41:51.779Z,16.17
2019-04-05T16:44:20.233Z,20.70
2019-04-05T16:46:48.670Z,19.90
2019-04-05T16:49:17.119Z,21.07
2019-04-05T16:51:45.566Z,18.90
2019-04-05T16:54:14.017Z,21.13
2019-04-05T16:56:42.467Z,20.03
2019-04-05T16:59:10.919Z,19.43
2019-04-05T17:01:39.395Z,20.70
2019-04-05T17:04:07.927Z,17.80
2019-04-05T17:06:36.388Z,21.40
2019-04-05T17:09:07.655Z,17.60
2019-04-05T17:11:36.480Z,19.17
2019-04-05T17:14:05.585Z,16.97
2019-04-05T17:16:34.064Z,17.23
2019-04-05T17:19:02.869Z,17.20
2019-04-05T17:21:31.644Z,18.40
2019-04-05T17:24:00.143Z,17.90
2019-04-05T17:26:28.633Z,17.70
2019-04-05T17:28:57.144Z,18.57
2019-04-05T17:31:25.596Z,17.03
2019-04-05T17:33:54.049Z,21.77
2019-04-05T17:36:22.517Z,17.77
2019-04-05T17:38:50.956Z,17.73
2019-04-05T17:41:19.407Z,17.97
2019-04-05T17:43:47.852Z,15.97
2019-04-05T17:46:17.248Z,16.93
2019-04-05T17:48:45.704Z,17.33
2019-04-05T17:51:14.316Z,15.63
2019-04-05T17:53:42.777Z,18.43
2019-04-05T17:56:11.598Z,17.13
2019-04-05T17:58:40.078Z,16.77
2019-04-05T18:01:08.510Z,16.77
2019-04-05T18:03:36.976Z,17.73
2019-04-05T18:06:05.523Z,16.17
2019-04-05T18:08:34.007Z,18.87
2019-04-05T18:11:02.802Z,21.17
2019-04-05T18:13:31.293Z,17.93
2019-04-05T18:15:59.731Z,18.97
2019-04-05T18:18:28.535Z,19.23
2019-04-05T18:20:57.009Z,20.63
2019-04-05T18:23:25.876Z,19.70
2019-04-05T18:25:54.512Z,18.20
2019-04-05T18:28:22.975Z,19.33
2019-04-05T18:30:51.756Z,20.67
2019-04-05T18:33:20.213Z,20.57
2019-04-05T18:35:49.127Z,18.30
2019-04-05T18:38:17.568Z,16.63
2019-04-05T18:40:46.115Z,20.33
2019-04-05T18:43:14.571Z,20.70
2019-04-05T18:45:43.051Z,20.40
2019-04-05T18:48:11.505Z,21.90
2019-04-05T18:50:39.953Z,17.17
2019-04-05T18:53:08.473Z,18.90
2019-04-05T18:55:37.484Z,18.53
2019-04-05T18:58:06.343Z,18.47
2019-04-05T19:00:35.164Z,17.07
2019-04-05T19:03:03.635Z,17.93
2019-04-05T19:05:32.411Z,17.17
2019-04-05T19:08:01.045Z,21.47
2019-04-05T19:10:36.845Z,16.63
2019-04-05T19:12:59.772Z,19.00
2019-04-05T19:15:29.241Z,18.60
2019-04-05T19:17:57.780Z,17.43
2019-04-05T19:20:26.244Z,21.83
2019-04-05T19:22:54.707Z,21.53
2019-04-05T19:25:23.448Z,22.03
2019-04-05T19:27:51.920Z,22.53
2019-04-05T19:50:22.209Z,17.97
2019-04-05T19:52:50.717Z,20.50
2019-04-05T19:55:19.161Z,18.37
2019-04-05T19:57:47.987Z,20.33
2019-04-05T20:00:16.719Z,21.13
2019-04-05T20:02:45.160Z,19.77
2019-04-05T20:05:13.984Z,19.43
2019-04-05T20:07:42.434Z,20.23
2019-04-05T20:10:11.243Z,17.80
2019-04-05T20:12:40.741Z,15.20
2019-04-05T20:15:09.559Z,21.17
2019-04-05T20:17:38.010Z,19.33
2019-04-05T20:20:07.524Z,19.03
2019-04-05T20:22:36.264Z,20.73
2019-04-05T20:25:06.446Z,18.23
2019-04-05T20:27:34.896Z,18.17
2019-04-05T20:30:07.851Z,19.83
2019-04-05T20:32:36.287Z,18.33
2019-04-05T20:35:05.206Z,23.50
2019-04-05T20:37:33.630Z,19.53
2019-04-05T20:40:02.077Z,19.80
2019-04-05T20:42:30.535Z,17.23
2019-04-05T20:44:59.007Z,17.57
2019-04-05T20:47:27.462Z,18.80
2019-04-05T20:49:55.912Z,17.07
2019-04-05T20:52:24.355Z,18.73
2019-04-05T20:54:52.794Z,18.17
2019-04-05T20:57:21.260Z,17.20
2019-04-05T20:59:49.737Z,17.80
2019-04-05T21:02:18.189Z,14.33
2019-04-05T21:04:46.645Z,15.53
2019-04-05T21:07:15.074Z,16.40
2019-04-05T21:09:45.173Z,16.53
2019-04-05T21:12:13.852Z,17.03
2019-04-05T21:14:42.315Z,16.33
2019-04-05T21:17:10.748Z,17.03
2019-04-05T21:19:39.218Z,17.70
2019-04-05T21:22:07.655Z,15.03
2019-04-05T21:24:36.575Z,19.30
2019-04-05T21:27:05.468Z,17.63
2019-04-05T21:29:33.960Z,19.93
2019-04-05T21:32:02.395Z,18.27
2019-04-05T21:34:31.185Z,18.83
2019-04-05T21:36:59.995Z,17.13
2019-04-05T21:39:28.443Z,17.00
2019-04-05T21:41:56.900Z,19.30
2019-04-05T21:44:25.392Z,18.47
2019-04-05T21:46:53.830Z,19.47
2019-04-05T21:49:22.375Z,17.10
2019-04-05T21:51:50.835Z,16.37
2019-04-05T21:54:19.375Z,18.63
2019-04-05T21:56:47.854Z,16.13
2019-04-05T21:59:16.696Z,15.00
2019-04-05T22:01:45.495Z,16.40
2019-04-05T22:04:13.964Z,13.40
2019-04-05T22:06:42.753Z,15.00
2019-04-05T22:09:11.382Z,14.47
2019-04-05T22:11:39.832Z,15.33
2019-04-05T22:14:08.276Z,14.10
2019-04-05T22:16:37.086Z,15.13
2019-04-05T22:19:05.565Z,12.07
2019-04-05T22:21:34.040Z,14.33
2019-04-05T22:24:02.474Z,14.40
2019-04-05T22:26:30.947Z,13.57
2019-04-05T22:28:59.671Z,15.83
2019-04-05T22:31:28.225Z,15.00
2019-04-05T22:33:56.651Z,13.17
2019-04-05T22:36:25.113Z,12.90
2019-04-05T22:38:53.548Z,13.60
2019-04-05T22:41:22.391Z,13.03
2019-04-05T22:43:50.857Z,15.60
2019-04-05T22:46:19.315Z,17.30
2019-04-05T22:48:48.139Z,16.23
2019-04-05T22:51:16.600Z,17.47
2019-04-05T22:53:45.335Z,18.33
2019-04-05T22:56:13.827Z,15.60
2019-04-05T22:58:42.300Z,18.20
2019-04-05T23:01:11.158Z,16.30
2019-04-05T23:03:39.616Z,20.63
2019-04-05T23:06:08.092Z,19.53
2019-04-05T23:08:36.895Z,20.43
2019-04-05T23:11:05.660Z,20.47
2019-04-05T23:13:34.107Z,19.00
2019-04-05T23:16:02.569Z,19.77
2019-04-05T23:18:31.046Z,19.10
2019-04-05T23:20:59.899Z,19.80
2019-04-05T23:23:28.347Z,20.20
2019-04-05T23:25:56.815Z,20.67
2019-04-05T23:28:25.287Z,17.83
2019-04-05T23:30:54.129Z,16.93
2019-04-05T23:33:22.570Z,20.43
2019-04-05T23:35:51.052Z,20.47
2019-04-05T23:38:19.533Z,20.57
2019-04-05T23:40:47.986Z,18.60
2019-04-05T23:43:16.466Z,19.13
2019-04-05T23:45:44.905Z,19.17
2019-04-05T23:48:13.434Z,17.93
2019-04-05T23:50:41.996Z,19.93
2019-04-05T23:53:10.466Z,19.87
2019-04-05T23:55:38.912Z,18.73
2019-04-05T23:58:07.708Z,20.70
